Time;durP1;ratioP1;P1;durP2;ratioP2;P2;SDS_P1;SDS_P2;PMS_P1;PMS_P2;Temp;Humidity;BMP_temperature;BMP_pressure;BME280_temperature;BME280_humidity;BME280_pressure;Samples;Min_cycle;Max_cycle;Signal;HPM_P1;HPM_P2
2023/05/05 00:01:07;;;;;;;11.52;3.83;;;;;;;8.48;100.00;101423.41;4918748;29;20493;-68
2023/05/05 00:03:36;;;;;;;19.40;4.05;;;;;;;8.39;100.00;101417.00;4918421;29;20135;-68
2023/05/05 00:06:04;;;;;;;16.27;4.00;;;;;;;8.31;100.00;101417.66;4917876;29;20131;-68
2023/05/05 00:08:31;;;;;;;11.40;4.15;;;;;;;8.31;100.00;101428.34;4918312;29;20130;-69
2023/05/05 00:10:57;;;;;;;11.88;3.55;;;;;;;8.30;100.00;101424.00;4918969;29;20072;-69
2023/05/05 00:13:24;;;;;;;15.77;4.03;;;;;;;8.24;100.00;101420.97;4918408;29;20131;-68
2023/05/05 00:15:52;;;;;;;10.15;3.92;;;;;;;8.24;100.00;101420.97;4918889;29;20052;-68
2023/05/05 00:18:19;;;;;;;19.63;3.95;;;;;;;8.17;100.00;101417.97;4917007;29;20397;-68
2023/05/05 00:20:46;;;;;;;13.90;3.80;;;;;;;8.09;100.00;101418.59;4918670;29;20416;-69
2023/05/05 00:23:16;;;;;;;13.98;3.25;;;;;;;8.13;100.00;101420.03;4922139;29;20069;-68
2023/05/05 00:25:43;;;;;;;17.10;4.20;;;;;;;8.14;100.00;101416.38;4918181;29;20046;-68
2023/05/05 00:28:09;;;;;;;12.82;4.30;;;;;;;8.06;100.00;101418.84;4918283;29;20618;-68
2023/05/05 00:30:36;;;;;;;20.95;4.03;;;;;;;7.97;100.00;101413.41;4919611;29;20123;-66
2023/05/05 00:33:03;;;;;;;9.43;3.35;;;;;;;7.99;100.00;101414.16;4916729;29;20044;-66
2023/05/05 00:35:30;;;;;;;11.15;3.70;;;;;;;8.03;100.00;101407.56;4915667;29;20100;-67
2023/05/05 00:37:57;;;;;;;14.90;3.05;;;;;;;7.99;100.00;101409.66;4916020;29;20557;-67
2023/05/05 00:40:24;;;;;;;12.90;4.07;;;;;;;7.97;100.00;101406.25;4915639;29;20131;-68
2023/05/05 00:42:50;;;;;;;14.63;3.67;;;;;;;7.96;100.00;101412.56;4916060;29;20051;-67
2023/05/05 00:45:18;;;;;;;9.48;3.45;;;;;;;7.90;100.00;101405.06;4916131;29;20036;-67
2023/05/05 00:47:53;;;;;;;9.82;3.58;;;;;;;7.87;100.00;101402.63;4915513;29;20044;-66
2023/05/05 00:50:26;;;;;;;8.02;3.47;;;;;;;7.82;100.00;101402.13;4915635;29;20470;-66
2023/05/05 00:52:55;;;;;;;14.30;3.95;;;;;;;7.80;100.00;101406.75;4914037;29;20048;-66
2023/05/05 00:55:21;;;;;;;17.48;3.53;;;;;;;7.79;100.00;101395.22;4906792;29;20044;-66
2023/05/05 00:57:48;;;;;;;11.75;3.22;;;;;;;7.74;100.00;101396.56;4915723;29;20052;-66
2023/05/05 01:00:15;;;;;;;17.60;4.00;;;;;;;7.74;100.00;101391.22;4914961;29;20058;-67
2023/05/05 01:02:43;;;;;;;9.55;3.22;;;;;;;7.69;100.00;101398.75;4915719;29;20055;-66
2023/05/05 01:09:30;;;;;;;7.95;3.20;;;;;;;7.65;100.00;101396.34;4903192;29;20520;-64
2023/05/05 01:12:12;;;;;;;18.98;3.30;;;;;;;7.63;100.00;101392.94;4909625;29;20048;-66
2023/05/05 01:14:43;;;;;;;14.43;3.15;;;;;;;7.68;100.00;101397.06;4915255;29;20416;-65
2023/05/05 01:17:18;;;;;;;12.27;3.55;;;;;;;7.60;100.00;101393.22;4912299;29;20127;-66
2023/05/05 01:20:22;;;;;;;17.23;3.95;;;;;;;7.60;100.00;101390.53;4915610;29;20060;-65
2023/05/05 01:23:00;;;;;;;16.45;4.00;;;;;;;7.54;100.00;101383.03;4914636;29;20441;-65
2023/05/05 01:25:45;;;;;;;15.38;3.90;;;;;;;7.57;100.00;101385.44;4915568;29;20059;-66
2023/05/05 01:28:34;;;;;;;11.10;3.70;;;;;;;7.52;100.00;101379.63;4915211;29;20048;-67
2023/05/05 01:31:16;;;;;;;16.10;3.47;;;;;;;7.48;100.00;101386.19;4914051;29;20068;-65
2023/05/05 01:33:48;;;;;;;15.35;4.40;;;;;;;7.48;100.00;101380.84;4914667;29;20052;-65
2023/05/05 01:36:22;;;;;;;10.07;3.47;;;;;;;7.49;100.00;101382.53;4909195;29;20574;-65
2023/05/05 01:38:54;;;;;;;11.60;4.07;;;;;;;7.46;100.00;101388.13;4879662;29;20060;-64
2023/05/05 01:41:27;;;;;;;13.80;4.10;;;;;;;7.48;100.00;101383.50;4895494;29;20051;-67
2023/05/05 01:43:55;;;;;;;11.93;3.75;;;;;;;7.42;100.00;101386.66;4895691;29;20056;-65
2023/05/05 01:46:23;;;;;;;13.45;3.30;;;;;;;7.35;100.00;101386.31;4895301;29;20048;-64
2023/05/05 01:48:51;;;;;;;10.93;3.75;;;;;;;7.37;100.00;101388.88;4895374;29;20056;-66
2023/05/05 01:51:20;;;;;;;12.63;4.75;;;;;;;7.27;100.00;101386.09;4895668;29;20052;-67
2023/05/05 01:53:50;;;;;;;18.92;4.07;;;;;;;7.29;100.00;101391.28;4894472;29;20066;-66
2023/05/05 01:56:19;;;;;;;11.27;4.28;;;;;;;7.29;100.00;101385.94;4895747;29;20049;-66
2023/05/05 01:58:47;;;;;;;13.20;3.50;;;;;;;7.28;100.00;101392.25;4895084;29;20084;-66
2023/05/05 02:01:15;;;;;;;14.98;4.22;;;;;;;7.30;100.00;101387.66;4896516;29;20052;-66
2023/05/05 02:03:43;;;;;;;11.48;4.03;;;;;;;7.28;100.00;101386.94;4913093;29;20071;-66
2023/05/05 02:06:11;;;;;;;10.32;4.13;;;;;;;7.30;100.00;101374.31;4914854;29;20054;-67
2023/05/05 02:08:39;;;;;;;13.18;3.83;;;;;;;7.25;100.00;101380.00;4893454;29;20052;-67
2023/05/05 02:11:08;;;;;;;12.65;4.00;;;;;;;7.23;100.00;101373.97;4896276;29;20410;-65
2023/05/05 02:13:36;;;;;;;10.48;3.92;;;;;;;7.24;100.00;101374.81;4894622;29;20069;-65
2023/05/05 02:16:04;;;;;;;15.02;4.05;;;;;;;7.14;100.00;101372.84;4894947;29;20498;-65
2023/05/05 02:18:34;;;;;;;12.05;3.80;;;;;;;7.12;100.00;101380.16;4894652;29;20059;-65
2023/05/05 02:21:02;;;;;;;16.20;4.82;;;;;;;7.10;100.00;101381.25;4895615;29;20087;-65
2023/05/05 02:23:29;;;;;;;11.52;4.32;;;;;;;7.08;100.00;101376.00;4891896;29;20165;-66
2023/05/05 02:26:06;;;;;;;12.70;3.88;;;;;;;7.10;100.00;101376.75;4895721;29;20521;-66
2023/05/05 02:28:46;;;;;;;13.35;3.65;;;;;;;6.98;100.00;101377.72;4894604;29;20048;-66
2023/05/05 02:31:15;;;;;;;14.23;3.85;;;;;;;6.99;100.00;101376.75;4895023;29;20410;-65
2023/05/05 02:33:43;;;;;;;16.13;4.57;;;;;;;6.94;100.00;101378.91;4894543;29;20056;-65
2023/05/05 02:36:20;;;;;;;9.50;3.72;;;;;;;6.92;100.00;101383.53;4893415;29;20718;-65
2023/05/05 02:39:05;;;;;;;11.02;3.55;;;;;;;6.91;100.00;101377.38;4893677;29;20417;-66
2023/05/05 02:41:35;;;;;;;10.65;3.80;;;;;;;6.92;100.00;101378.22;4894433;29;20064;-66
2023/05/05 02:44:03;;;;;;;14.13;4.80;;;;;;;6.89;100.00;101367.78;4893716;29;20049;-67
2023/05/05 02:46:30;;;;;;;14.10;3.92;;;;;;;6.88;100.00;101368.75;4894921;29;20134;-68
2023/05/05 02:48:58;;;;;;;17.10;4.38;;;;;;;6.89;100.00;101373.09;4894768;29;20136;-65
2023/05/05 02:51:25;;;;;;;13.43;4.10;;;;;;;6.85;100.00;101377.84;4894096;29;20101;-67
2023/05/05 02:53:51;;;;;;;9.82;3.33;;;;;;;6.80;100.00;101368.47;4893376;29;20060;-68
2023/05/05 02:56:38;;;;;;;15.63;3.90;;;;;;;6.83;100.00;101368.25;4894825;29;20055;-67
2023/05/05 02:59:28;;;;;;;9.88;3.50;;;;;;;6.89;100.00;101370.44;4893919;29;20052;-66
2023/05/05 03:02:00;;;;;;;16.58;3.72;;;;;;;6.85;100.00;101369.84;4898249;29;20052;-66
2023/05/05 03:04:44;;;;;;;10.95;3.60;;;;;;;6.92;100.00;101378.22;4910474;29;20139;-65
2023/05/05 03:07:20;;;;;;;8.65;3.78;;;;;;;6.85;100.00;101372.50;4913202;29;20048;-66
2023/05/05 03:10:04;;;;;;;11.70;4.60;;;;;;;6.83;100.00;101378.91;4913207;29;20052;-65
2023/05/05 03:12:45;;;;;;;9.50;3.30;;;;;;;6.78;100.00;101378.44;4910037;29;20040;-67
2023/05/05 03:15:13;;;;;;;15.77;4.32;;;;;;;6.76;100.00;101364.38;4908742;29;20064;-66
2023/05/05 03:17:42;;;;;;;12.68;3.85;;;;;;;6.72;100.00;101371.75;4912602;29;20060;-66
2023/05/05 03:20:11;;;;;;;12.10;3.92;;;;;;;6.71;100.00;101370.91;4916600;29;20096;-66
2023/05/05 03:22:37;;;;;;;8.98;3.55;;;;;;;6.66;100.00;101370.41;4917435;29;20055;-65
2023/05/05 03:25:05;;;;;;;14.52;4.00;;;;;;;6.61;100.00;101371.75;4914789;29;20497;-65
2023/05/05 03:27:31;;;;;;;12.65;4.30;;;;;;;6.53;100.00;101361.69;4898139;29;20055;-66
2023/05/05 03:29:58;;;;;;;17.17;4.38;;;;;;;6.53;100.00;101372.34;4896621;29;20511;-66
2023/05/05 03:32:24;;;;;;;15.18;4.63;;;;;;;6.52;100.00;101367.13;4897398;29;20048;-65
2023/05/05 03:34:51;;;;;;;18.58;3.95;;;;;;;6.51;100.00;101365.41;4898814;29;20048;-68
2023/05/05 03:37:18;;;;;;;16.92;4.45;;;;;;;6.47;100.00;101367.47;4920693;29;20052;-69
2023/05/05 03:39:44;;;;;;;35.35;4.32;;;;;;;6.47;100.00;101372.81;4920554;29;20047;-70
2023/05/05 03:42:11;;;;;;;13.15;4.32;;;;;;;6.46;100.00;101377.28;4920736;29;20045;-69
2023/05/05 03:44:37;;;;;;;17.88;4.20;;;;;;;6.41;100.00;101368.78;4908085;29;20216;-65
2023/05/05 03:47:04;;;;;;;11.23;4.43;;;;;;;6.41;100.00;101374.13;4896898;29;20049;-66
2023/05/05 03:49:30;;;;;;;15.50;4.20;;;;;;;6.42;100.00;101372.28;4896723;29;20144;-67
2023/05/05 03:51:57;;;;;;;11.07;4.40;;;;;;;6.38;100.00;101368.16;4896626;29;20047;-65
2023/05/05 03:54:23;;;;;;;13.10;4.20;;;;;;;6.26;100.00;101366.44;4898443;29;20448;-65
2023/05/05 03:56:50;;;;;;;11.55;4.32;;;;;;;6.28;100.00;101367.16;4881021;29;20055;-65
2023/05/05 03:59:16;;;;;;;13.35;4.43;;;;;;;6.32;100.00;101372.16;4894957;29;20135;-66
2023/05/05 04:01:45;;;;;;;14.85;3.97;;;;;;;6.36;100.00;101370.13;4897741;29;20049;-68
2023/05/05 04:04:12;;;;;;;17.10;3.97;;;;;;;6.24;100.00;101369.19;4898499;29;20148;-69
2023/05/05 04:06:38;;;;;;;10.85;4.13;;;;;;;6.28;100.00;101367.16;4898341;29;20040;-69
2023/05/05 04:09:05;;;;;;;8.70;3.30;;;;;;;6.29;100.00;101368.84;4899298;29;20053;-69
2023/05/05 04:11:31;;;;;;;12.73;4.32;;;;;;;6.28;100.00;101373.34;4898524;29;20064;-68
2023/05/05 04:13:58;;;;;;;10.73;4.00;;;;;;;6.29;100.00;101363.53;4898891;29;20055;-67
2023/05/05 04:16:24;;;;;;;12.73;4.68;;;;;;;6.25;100.00;101365.53;4898590;29;20136;-69
2023/05/05 04:18:51;;;;;;;13.13;4.47;;;;;;;6.24;100.00;101361.19;4882952;29;20069;-69
2023/05/05 04:21:18;;;;;;;16.42;4.70;;;;;;;6.31;100.00;101357.13;4900310;29;20059;-69
2023/05/05 04:23:44;;;;;;;15.18;4.47;;;;;;;6.27;100.00;101365.47;4883694;29;20052;-68
2023/05/05 04:26:11;;;;;;;16.05;4.28;;;;;;;6.24;100.00;101371.84;4904710;29;20418;-70
2023/05/05 04:28:37;;;;;;;17.52;4.85;;;;;;;6.32;100.00;101373.97;4900824;29;20059;-68
2023/05/05 04:31:04;;;;;;;17.75;4.47;;;;;;;6.35;100.00;101384.38;4898221;29;20054;-69
2023/05/05 04:33:31;;;;;;;12.68;3.78;;;;;;;6.40;100.00;101375.09;4898666;29;20052;-69
2023/05/05 04:35:57;;;;;;;10.82;4.43;;;;;;;6.52;100.00;101386.63;4898838;29;20484;-68
2023/05/05 04:38:24;;;;;;;12.68;4.68;;;;;;;6.55;100.00;101377.53;4900539;29;20425;-68
2023/05/05 04:40:51;;;;;;;15.07;4.88;;;;;;;6.51;100.00;101379.59;4899798;29;20127;-69
2023/05/05 04:43:18;;;;;;;19.55;4.35;;;;;;;6.52;100.00;101375.94;4900611;29;20126;-68
2023/05/05 04:45:54;;;;;;;16.48;4.68;;;;;;;6.51;100.00;101376.09;4900810;29;20048;-69
2023/05/05 04:48:21;;;;;;;11.77;4.78;;;;;;;6.57;100.00;101387.13;4900565;29;20045;-69
2023/05/05 04:50:47;;;;;;;12.35;4.10;;;;;;;6.59;100.00;101390.50;4901539;29;20502;-69
2023/05/05 04:53:14;;;;;;;14.35;4.00;;;;;;;6.68;100.00;101389.81;4899584;29;20048;-68
2023/05/05 04:55:41;;;;;;;16.55;4.28;;;;;;;6.66;100.00;101394.41;4895280;29;20048;-68
2023/05/05 04:58:07;;;;;;;19.45;4.05;;;;;;;6.72;100.00;101403.75;4901852;29;20422;-69
2023/05/05 05:00:36;;;;;;;13.90;4.72;;;;;;;6.74;100.00;101398.28;4901456;29;20157;-69
2023/05/05 05:03:03;;;;;;;19.23;4.78;;;;;;;6.91;100.00;101397.81;4915938;29;20107;-68
2023/05/05 05:05:29;;;;;;;20.33;5.40;;;;;;;7.00;100.00;101406.94;4921497;29;20139;-70
2023/05/05 05:07:56;;;;;;;14.57;4.63;;;;;;;7.06;100.00;101401.13;4916885;29;20055;-72
2023/05/05 05:10:22;;;;;;;13.48;4.45;;;;;;;7.15;100.00;101403.94;4915993;29;20055;-72
2023/05/05 05:12:49;;;;;;;13.43;4.40;;;;;;;7.25;100.00;101405.84;4905723;29;20048;-72
2023/05/05 05:15:16;;;;;;;12.48;3.92;;;;;;;7.25;100.00;101405.84;4908780;29;20049;-72
2023/05/05 05:17:42;;;;;;;11.43;4.47;;;;;;;7.27;100.00;101407.44;4896481;29;20135;-74
2023/05/05 05:20:09;;;;;;;17.48;4.40;;;;;;;7.37;100.00;101410.22;4895882;29;20052;-74
2023/05/05 05:22:37;;;;;;;17.15;4.60;;;;;;;7.39;100.00;101408.25;4896236;29;20052;-73
2023/05/05 05:25:04;;;;;;;18.25;5.15;;;;;;;7.47;100.00;101408.53;4896748;29;20078;-72
2023/05/05 05:27:31;;;;;;;14.27;4.65;;;;;;;7.45;100.00;101415.78;4896891;29;20052;-74
2023/05/05 05:29:57;;;;;;;12.15;4.55;;;;;;;7.45;100.00;101413.13;4896724;29;20059;-73
2023/05/05 05:32:24;;;;;;;19.13;4.88;;;;;;;7.64;100.00;101402.66;4897150;29;20045;-73
2023/05/05 05:34:50;;;;;;;10.98;4.70;;;;;;;7.62;100.00;101407.28;4896427;29;20056;-75
2023/05/05 05:37:17;;;;;;;14.60;4.40;;;;;;;7.70;100.00;101411.97;4896161;29;20585;-73
2023/05/05 05:39:50;;;;;;;16.85;5.00;;;;;;;7.61;100.00;101408.25;4896361;29;20136;-73
2023/05/05 05:42:16;;;;;;;16.60;4.95;;;;;;;7.52;100.00;101408.97;4910291;29;20064;-69
2023/05/05 05:44:43;;;;;;;13.95;4.78;;;;;;;7.45;100.00;101414.94;4918606;29;20047;-69
2023/05/05 05:47:09;;;;;;;19.13;4.85;;;;;;;7.42;100.00;101408.03;4919209;29;20083;-70
2023/05/05 05:49:36;;;;;;;16.23;4.90;;;;;;;7.49;100.00;101419.91;4915502;29;20076;-69
2023/05/05 05:52:03;;;;;;;17.63;5.80;;;;;;;7.48;100.00;101412.88;4913893;29;20053;-71
2023/05/05 05:54:31;;;;;;;16.35;4.95;;;;;;;7.52;100.00;101403.66;4913929;29;20052;-70
2023/05/05 05:56:58;;;;;;;19.83;5.88;;;;;;;7.48;100.00;101412.88;4914350;29;20040;-70
2023/05/05 05:59:24;;;;;;;16.33;5.57;;;;;;;7.59;100.00;101401.31;4913497;29;20421;-71
2023/05/05 06:01:51;;;;;;;24.33;5.75;;;;;;;7.73;100.00;101410.91;4913862;29;20127;-70
2023/05/05 06:04:24;;;;;;;12.40;4.88;;;;;;;7.87;100.00;101415.97;5062260;27;20410;-70
2023/05/05 06:06:51;;;;;;;18.52;5.43;;;;;;;7.92;100.00;101412.97;5063800;28;20385;-70
2023/05/05 06:09:17;;;;;;;24.20;5.28;;;;;;;7.95;100.00;101415.34;5061498;28;20052;-71
2023/05/05 06:11:44;;;;;;;18.08;6.00;;;;;;;7.82;100.00;101418.16;5062196;28;20060;-70
2023/05/05 06:14:11;;;;;;;19.60;4.95;;;;;;;7.79;100.00;101415.75;5062853;28;20068;-70
2023/05/05 06:16:37;;;;;;;12.75;5.28;;;;;;;7.85;100.00;101423.28;5063485;28;20045;-70
2023/05/05 06:19:08;;;;;;;16.05;5.25;;;;;;;8.11;100.00;101427.31;5059979;28;20061;-70
2023/05/05 06:21:35;;;;;;;13.25;5.47;;;;;;;8.34;100.00;101421.91;5062885;28;20048;-70
2023/05/05 06:24:01;;;;;;;18.02;5.35;;;;;;;8.34;100.00;101422.75;5063880;28;20049;-70
2023/05/05 06:26:28;;;;;;;19.45;5.57;;;;;;;8.28;100.00;101423.25;5071199;28;20048;-70
2023/05/05 06:28:54;;;;;;;20.70;5.05;;;;;;;8.31;99.13;101420.31;5065364;28;20101;-71
2023/05/05 06:31:21;;;;;;;20.95;5.45;;;;;;;8.56;97.04;101427.13;5063465;28;20072;-71
2023/05/05 06:33:48;;;;;;;21.95;5.22;;;;;;;8.58;95.43;101424.34;5063314;28;20076;-69
2023/05/05 06:36:15;;;;;;;17.92;5.32;;;;;;;8.73;92.69;101424.84;5063364;28;20408;-69
2023/05/05 06:38:41;;;;;;;18.27;6.03;;;;;;;8.65;92.85;101430.03;5063761;28;20109;-69
2023/05/05 06:41:08;;;;;;;13.13;5.55;;;;;;;8.81;90.74;101425.03;5065200;28;20052;-70
2023/05/05 06:43:34;;;;;;;22.30;5.45;;;;;;;8.84;88.10;101430.13;5065261;28;20051;-70
2023/05/05 06:46:01;;;;;;;19.63;5.20;;;;;;;9.03;87.78;101430.25;5066179;28;20114;-69
2023/05/05 06:48:27;;;;;;;16.60;4.80;;;;;;;9.16;84.43;101424.69;5070329;28;20047;-71
2023/05/05 06:50:55;;;;;;;23.40;4.93;;;;;;;8.91;84.20;101417.91;5066160;28;20080;-70
2023/05/05 06:53:22;;;;;;;15.95;4.82;;;;;;;9.20;84.57;101427.94;5064403;28;20041;-70
2023/05/05 06:55:48;;;;;;;23.17;5.70;;;;;;;9.40;83.42;101428.88;5061891;28;20128;-70
2023/05/05 06:58:15;;;;;;;17.25;4.68;;;;;;;9.27;80.84;101439.84;5056984;28;20049;-71
2023/05/05 07:00:42;;;;;;;20.70;5.28;;;;;;;9.23;82.39;101431.19;5063022;28;20041;-69
2023/05/05 07:03:08;;;;;;;11.40;4.68;;;;;;;9.25;82.12;101431.06;5062810;28;20049;-69
2023/05/05 07:05:35;;;;;;;11.05;4.85;;;;;;;9.42;80.49;101429.59;5063463;28;20059;-71
2023/05/05 07:08:02;;;;;;;13.48;4.47;;;;;;;9.60;78.69;101435.16;5062802;28;20045;-72
2023/05/05 07:10:30;;;;;;;13.73;4.72;;;;;;;9.64;76.83;101433.91;5061364;28;20045;-71
2023/05/05 07:12:56;;;;;;;13.35;4.63;;;;;;;9.53;77.19;101432.16;5063009;28;20079;-70
2023/05/05 07:15:23;;;;;;;15.45;5.15;;;;;;;9.62;76.62;101433.19;5051275;28;20076;-70
2023/05/05 07:17:55;;;;;;;21.85;4.53;;;;;;;9.86;75.62;101433.69;5047960;28;20067;-70
2023/05/05 07:20:22;;;;;;;31.58;5.32;;;;;;;10.16;73.46;101423.81;5046098;28;20122;-70
2023/05/05 07:22:48;;;;;;;16.95;4.63;;;;;;;10.46;71.57;101429.06;5043827;28;20049;-71
2023/05/05 07:25:15;;;;;;;19.23;4.60;;;;;;;10.24;71.31;101432.88;5044680;28;20071;-70
2023/05/05 07:27:42;;;;;;;16.50;5.10;;;;;;;10.35;70.88;101431.88;5045417;28;20053;-71
2023/05/05 07:30:09;;;;;;;16.23;5.50;;;;;;;10.55;69.35;101434.56;5044762;28;20061;-69
2023/05/05 07:32:40;;;;;;;18.50;4.88;;;;;;;11.09;68.87;101443.81;5049269;28;20045;-70
2023/05/05 07:35:07;;;;;;;15.82;4.05;;;;;;;11.55;65.20;101447.44;5051268;28;20045;-70
2023/05/05 07:37:34;;;;;;;16.33;5.20;;;;;;;11.25;65.14;101443.19;5051811;28;20060;-72
2023/05/05 07:40:01;;;;;;;22.90;4.63;;;;;;;11.02;66.36;101458.81;5049090;28;20045;-71
2023/05/05 07:42:27;;;;;;;12.95;4.88;;;;;;;11.30;65.36;101448.97;5050961;28;20062;-71
2023/05/05 07:44:54;;;;;;;12.00;4.57;;;;;;;11.52;64.41;101451.28;5051776;28;20080;-72
2023/05/05 07:47:20;;;;;;;9.77;4.07;;;;;;;11.93;63.29;101454.47;5044150;28;20053;-73
2023/05/05 07:49:47;;;;;;;11.57;4.03;;;;;;;11.84;63.37;101464.28;5065401;28;20049;-73
2023/05/05 07:52:13;;;;;;;12.00;5.10;;;;;;;12.06;62.89;101459.47;5049990;28;20493;-71
2023/05/05 07:54:41;;;;;;;19.17;4.85;;;;;;;11.87;63.05;101450.56;5051908;28;20055;-71
2023/05/05 07:57:07;;;;;;;15.32;4.35;;;;;;;11.67;62.90;101447.13;5051071;28;20052;-71
2023/05/05 07:59:34;;;;;;;11.57;4.18;;;;;;;11.82;63.00;101449.31;5051252;28;20049;-72
2023/05/05 08:02:00;;;;;;;11.80;5.03;;;;;;;11.98;62.32;101438.72;5048732;28;20076;-71
2023/05/05 08:04:27;;;;;;;16.58;5.38;;;;;;;12.06;62.31;101435.28;5049259;28;20057;-71
2023/05/05 08:06:53;;;;;;;12.13;4.63;;;;;;;11.99;61.75;101426.97;5050199;28;20046;-71
2023/05/05 08:09:20;;;;;;;13.85;5.32;;;;;;;11.99;62.71;101434.19;5047910;28;20061;-71
2023/05/05 08:11:47;;;;;;;13.18;4.93;;;;;;;12.42;61.29;101433.44;5050835;28;20093;-72
2023/05/05 08:14:14;;;;;;;16.42;5.05;;;;;;;12.12;61.18;101432.81;5046321;28;20060;-72
2023/05/05 08:16:40;;;;;;;20.27;4.78;;;;;;;12.24;61.18;101436.13;5042746;28;20072;-72
2023/05/05 08:19:07;;;;;;;13.88;4.82;;;;;;;12.70;60.45;101436.88;5044181;28;20099;-72
2023/05/05 08:21:50;;;;;;;16.15;4.88;;;;;;;13.15;58.92;101435.84;5045033;28;20045;-72
2023/05/05 08:24:16;;;;;;;13.90;4.93;;;;;;;13.22;57.73;101428.81;5048896;28;20079;-72
2023/05/05 08:26:43;;;;;;;19.30;5.18;;;;;;;13.38;57.69;101435.28;5044766;28;20128;-71
2023/05/05 08:29:09;;;;;;;20.25;5.45;;;;;;;13.34;57.39;101440.16;5047627;28;20041;-73
2023/05/05 08:31:36;;;;;;;11.90;4.90;;;;;;;13.28;57.84;101432.69;5047058;28;20069;-71
2023/05/05 08:34:04;;;;;;;11.77;5.07;;;;;;;13.02;58.00;101436.28;5043219;28;20045;-71
2023/05/05 08:36:32;;;;;;;12.23;4.72;;;;;;;13.41;57.68;101427.72;5044731;28;20053;-70
2023/05/05 08:38:59;;;;;;;14.07;5.30;;;;;;;13.97;56.61;101426.25;5043936;28;20104;-71
2023/05/05 08:41:26;;;;;;;11.02;4.30;;;;;;;14.26;55.38;101420.41;5044910;28;20106;-71
2023/05/05 08:43:53;;;;;;;20.13;5.20;;;;;;;14.64;54.15;101423.44;5045806;28;20049;-72
2023/05/05 08:46:21;;;;;;;13.10;4.65;;;;;;;14.27;54.49;101419.38;5047637;28;20095;-71
2023/05/05 08:48:47;;;;;;;13.77;5.00;;;;;;;13.97;55.04;101414.63;5044970;28;20053;-71
2023/05/05 08:51:20;;;;;;;16.05;4.97;;;;;;;14.42;54.37;101410.59;5043927;28;20057;-71
2023/05/05 08:54:04;;;;;;;16.95;4.28;;;;;;;14.06;55.28;101417.16;5044940;28;20132;-71
2023/05/05 08:56:33;;;;;;;13.82;5.43;;;;;;;14.48;54.29;101418.03;5043627;28;20049;-71
2023/05/05 08:59:01;;;;;;;10.45;4.72;;;;;;;14.43;53.71;101409.63;5042955;28;20057;-70
2023/05/05 09:01:30;;;;;;;11.38;4.47;;;;;;;14.74;53.55;101423.31;5043901;28;20049;-71
2023/05/05 09:03:58;;;;;;;11.75;4.38;;;;;;;14.46;53.78;101420.06;5044884;28;20053;-72
2023/05/05 09:06:26;;;;;;;10.55;4.50;;;;;;;14.72;53.79;101423.47;5044714;28;20128;-70
2023/05/05 09:08:53;;;;;;;21.67;5.53;;;;;;;14.93;52.75;101424.78;5044714;28;20049;-70
2023/05/05 09:11:21;;;;;;;10.00;4.88;;;;;;;15.09;53.19;101424.75;5045369;28;20112;-71
2023/05/05 09:13:48;;;;;;;17.77;5.43;;;;;;;15.54;51.79;101420.53;5044226;28;20058;-71
2023/05/05 09:16:15;;;;;;;13.95;5.30;;;;;;;15.44;51.54;101411.78;5044031;28;20080;-71
2023/05/05 09:18:41;;;;;;;13.82;4.85;;;;;;;15.32;51.78;101415.88;5029381;28;20052;-71
2023/05/05 09:21:23;;;;;;;13.40;4.65;;;;;;;15.84;50.77;101407.22;5043785;28;20041;-71
2023/05/05 09:24:03;;;;;;;;;;;;;;;16.13;50.49;101404.66;5036357;28;20076;-69
2023/05/05 09:26:54;;;;;;;27.35;4.80;;;;;;;15.69;50.04;101404.44;5051316;28;19928;-70
2023/05/05 09:29:23;;;;;;;10.65;4.40;;;;;;;15.25;50.91;101408.47;5043668;28;20053;-71
2023/05/05 09:32:07;;;;;;;17.30;5.93;;;;;;;15.32;51.69;101397.78;5041513;28;20049;-71
2023/05/05 09:34:34;;;;;;;13.80;4.55;;;;;;;15.18;51.41;101406.63;5041970;28;20046;-70
2023/05/05 09:37:02;;;;;;;20.08;5.10;;;;;;;15.78;49.27;101402.50;5040813;28;20041;-71
2023/05/05 09:39:28;;;;;;;14.82;5.22;;;;;;;15.99;48.66;101404.59;5041473;28;20056;-71
2023/05/05 09:41:55;;;;;;;9.93;4.20;;;;;;;16.31;48.52;101398.09;5041816;28;20049;-70
2023/05/05 09:44:36;;;;;;;10.52;4.47;;;;;;;16.55;48.62;101388.94;5041882;28;20053;-70
2023/05/05 09:47:02;;;;;;;16.02;4.20;;;;;;;16.81;47.79;101402.06;5041399;28;20450;-71
2023/05/05 09:49:37;;;;;;;14.25;4.65;;;;;;;17.13;46.49;101399.00;5041481;28;20057;-71
2023/05/05 09:52:14;;;;;;;16.75;4.57;;;;;;;17.17;45.18;101398.66;5041257;28;20124;-71
2023/05/05 09:54:42;;;;;;;10.70;4.30;;;;;;;17.16;45.82;101405.91;5046787;28;20048;-71
2023/05/05 09:57:24;;;;;;;14.45;4.55;;;;;;;16.45;45.93;101402.72;5043047;28;20056;-69
2023/05/05 09:59:56;;;;;;;10.13;4.53;;;;;;;16.67;45.70;101414.56;5036433;28;20045;-71
2023/05/05 10:02:33;;;;;;;14.43;4.72;;;;;;;15.77;48.36;101403.53;5042084;28;20065;-70
2023/05/05 10:05:09;;;;;;;12.45;4.40;;;;;;;16.70;47.15;101405.22;5039629;28;20045;-70
2023/05/05 10:07:38;;;;;;;13.13;4.50;;;;;;;16.70;45.30;101399.81;5041577;28;20050;-72
2023/05/05 10:10:06;;;;;;;21.13;5.70;;;;;;;16.76;45.19;101402.63;5041453;28;20068;-71
2023/05/05 10:12:37;;;;;;;12.20;5.20;;;;;;;17.49;44.59;101400.97;5041135;28;20099;-69
2023/05/05 10:15:06;;;;;;;15.82;5.13;;;;;;;17.17;44.47;101393.22;5043303;28;20061;-71
2023/05/05 10:17:44;;;;;;;10.30;4.90;;;;;;;16.43;45.70;101389.34;5044589;28;20421;-65
2023/05/05 10:20:31;;;;;;;13.18;4.00;;;;;;;16.03;47.96;101389.69;5047430;28;20056;-72
2023/05/05 10:23:01;;;;;;;20.45;4.00;;;;;;;15.60;48.28;101386.50;5037760;28;20099;-73
2023/05/05 10:25:30;;;;;;;16.33;4.97;;;;;;;16.30;46.33;101378.31;5034838;28;20053;-69
2023/05/05 10:27:59;;;;;;;10.45;3.85;;;;;;;16.62;47.32;101377.19;5034605;28;20421;-70
2023/05/05 10:30:30;;;;;;;15.40;4.32;;;;;;;17.03;44.47;101386.78;5034577;28;20049;-71
2023/05/05 10:33:21;;;;;;;9.07;4.43;;;;;;;17.04;46.20;101383.03;5034145;28;20738;-73
2023/05/05 10:35:52;;;;;;;13.40;3.78;;;;;;;17.45;43.75;101374.44;5032974;28;20121;-71
2023/05/05 10:38:20;;;;;;;9.63;3.92;;;;;;;16.94;44.89;101377.03;5032714;28;20049;-71
2023/05/05 10:40:47;;;;;;;13.48;4.45;;;;;;;16.65;45.87;101378.69;5034432;28;20045;-72
2023/05/05 10:43:14;;;;;;;13.15;3.88;;;;;;;17.09;44.99;101369.75;5035546;28;20084;-72
2023/05/05 10:45:42;;;;;;;13.45;4.18;;;;;;;17.11;43.85;101376.66;5034270;28;20068;-72
2023/05/05 10:48:16;;;;;;;15.25;4.32;;;;;;;17.21;44.26;101376.38;5032069;28;20153;-72
2023/05/05 10:50:55;;;;;;;14.52;4.30;;;;;;;17.37;44.11;101369.94;5034808;28;20109;-71
2023/05/05 10:53:31;;;;;;;11.90;4.15;;;;;;;16.81;46.36;101377.69;5034156;28;20116;-70
2023/05/05 10:56:05;;;;;;;11.55;4.40;;;;;;;16.39;47.19;101365.53;5037441;28;20053;-72
2023/05/05 10:58:33;;;;;;;12.15;3.47;;;;;;;16.18;48.61;101364.34;5037854;28;20051;-71
2023/05/05 11:01:27;;;;;;;9.98;4.35;;;;;;;16.58;48.46;101365.06;5037118;28;20115;-70
2023/05/05 11:04:17;;;;;;;10.85;4.30;;;;;;;15.69;49.39;101353.88;5036677;28;20044;-71
2023/05/05 11:07:09;;;;;;;10.50;4.00;;;;;;;16.11;48.05;101344.44;5036267;28;20069;-74
2023/05/05 11:09:57;;;;;;;10.88;4.10;;;;;;;16.89;45.69;101335.09;5036004;28;20051;-70
2023/05/05 11:12:24;;;;;;;12.00;4.25;;;;;;;17.18;44.59;101344.22;5034357;28;20093;-72
2023/05/05 11:15:25;;;;;;;9.90;3.80;;;;;;;17.44;44.21;101341.03;5034869;28;20051;-70
2023/05/05 11:17:52;;;;;;;11.95;4.10;;;;;;;16.80;43.59;101344.31;5035269;28;20037;-69
2023/05/05 11:20:39;;;;;;;8.52;3.25;;;;;;;16.87;46.61;101344.41;5035782;28;20083;-72
2023/05/05 11:23:06;;;;;;;11.32;3.75;;;;;;;16.76;46.07;101334.06;5030436;28;20049;-72
2023/05/05 11:28:10;;;;;;;17.92;3.90;;;;;;;17.80;42.23;101332.88;5037076;28;20496;-71
2023/05/05 11:30:55;;;;;;;10.73;3.67;;;;;;;17.26;42.50;101335.13;5035709;28;20196;-71
2023/05/05 11:33:24;;;;;;;9.85;3.75;;;;;;;17.36;43.33;101330.28;5033846;28;20053;-73
2023/05/05 11:36:02;;;;;;;6.88;3.10;;;;;;;17.10;42.35;101323.47;5034906;28;20045;-71
2023/05/05 11:38:35;;;;;;;8.35;2.97;;;;;;;17.05;44.17;101322.34;5034371;28;20050;-73